createdAt,value
2023-03-05T00:01:24.404Z,102336.66
2023-03-05T00:03:52.920Z,102326.53
2023-03-05T00:06:21.024Z,102299.25
2023-03-05T00:08:49.202Z,102323.59
2023-03-05T00:11:16.601Z,102325.31
2023-03-05T00:13:43.542Z,102321.69
2023-03-05T00:16:13.472Z,102318.03
2023-03-05T00:18:40.441Z,102316.28
2023-03-05T00:21:32.021Z,102227.72
2023-03-05T00:24:01.616Z,102284.44
2023-03-05T00:26:29.564Z,102221.75
2023-03-05T00:28:57.908Z,102306.22
2023-03-05T00:31:30.521Z,102295.34
2023-03-05T00:34:00.089Z,102301.59
2023-03-05T00:36:27.758Z,102295.25
2023-03-05T00:38:54.697Z,102298.81
2023-03-05T00:41:21.766Z,102297.97
2023-03-05T00:43:48.960Z,102293.41
2023-03-05T00:46:18.292Z,102283.09
2023-03-05T00:48:44.963Z,102295.25
2023-03-05T00:51:11.688Z,102288.28
2023-03-05T00:53:40.803Z,102289.84
2023-03-05T00:56:07.515Z,102260.81
2023-03-05T00:58:36.236Z,102273.44
2023-03-05T01:01:03.909Z,102288.06
2023-03-05T01:03:32.021Z,102285.47
2023-03-05T01:05:59.477Z,102257.28
2023-03-05T01:08:26.463Z,102274.22
2023-03-05T01:10:53.502Z,102245.28
2023-03-05T01:13:21.023Z,102268.75
2023-03-05T01:15:48.788Z,102253.09
2023-03-05T01:18:18.088Z,102232.88
2023-03-05T01:20:44.828Z,102230.97
2023-03-05T01:23:11.550Z,102259.91
2023-03-05T01:25:38.214Z,102248.41
2023-03-05T01:28:05.042Z,102249.09
2023-03-05T01:30:31.649Z,102232.56
2023-03-05T01:33:00.433Z,102231.63
2023-03-05T01:35:27.179Z,102206.88
2023-03-05T01:37:54.460Z,102224.34
2023-03-05T01:40:26.154Z,102205.66
2023-03-05T01:43:12.649Z,102223.19
2023-03-05T01:46:17.866Z,102220.47
2023-03-05T01:48:54.741Z,102216.09
2023-03-05T01:51:26.935Z,102190.50
2023-03-05T01:53:58.055Z,102212.44
2023-03-05T01:56:26.003Z,102122.97
2023-03-05T01:58:54.700Z,102190.56
2023-03-05T02:01:21.524Z,102195.59
2023-03-05T02:03:48.662Z,102185.00
2023-03-05T02:06:15.513Z,102191.91
2023-03-05T02:08:42.119Z,102173.63
2023-03-05T02:11:11.449Z,102186.97
2023-03-05T02:13:40.873Z,102186.09
2023-03-05T02:16:08.071Z,102165.75
2023-03-05T02:18:37.236Z,102140.31
2023-03-05T02:21:11.381Z,102147.16
2023-03-05T02:23:38.874Z,102142.94
2023-03-05T02:26:08.402Z,102171.63
2023-03-05T02:28:45.533Z,102122.34
2023-03-05T02:31:18.993Z,102153.50
2023-03-05T02:33:49.306Z,102158.97
2023-03-05T02:36:15.958Z,102155.56
2023-03-05T02:38:43.546Z,102143.69
2023-03-05T02:41:10.454Z,102138.63
2023-03-05T02:43:39.766Z,102113.91
2023-03-05T02:46:06.589Z,102137.81
2023-03-05T02:48:35.940Z,102130.75
2023-03-05T02:51:05.555Z,102136.56
2023-03-05T02:53:32.151Z,102129.84
2023-03-05T02:55:58.857Z,102118.53
2023-03-05T02:58:25.524Z,102127.28
2023-03-05T03:00:54.361Z,102108.19
2023-03-05T03:03:23.146Z,102096.13
2023-03-05T03:05:54.317Z,102085.31
2023-03-05T03:08:21.029Z,102112.03
2023-03-05T03:10:47.652Z,102109.47
2023-03-05T03:13:14.286Z,102109.47
2023-03-05T03:15:40.884Z,102108.66
2023-03-05T03:18:07.552Z,102070.34
2023-03-05T03:20:36.677Z,102110.41
2023-03-05T03:23:08.575Z,102106.63
2023-03-05T03:25:35.231Z,102079.59
2023-03-05T03:28:01.863Z,102107.34
2023-03-05T03:30:30.487Z,102081.50
2023-03-05T03:32:57.102Z,102096.44
2023-03-05T03:35:23.725Z,102087.53
2023-03-05T03:37:50.449Z,102088.34
2023-03-05T03:40:17.622Z,102096.38
2023-03-05T03:42:44.286Z,102068.81
2023-03-05T03:45:16.717Z,102059.81
2023-03-05T03:47:45.094Z,101912.88
2023-03-05T03:50:14.205Z,101894.84
2023-03-05T03:52:45.635Z,102053.84
2023-03-05T03:55:12.250Z,102074.69
2023-03-05T03:57:41.131Z,102068.38
2023-03-05T04:00:11.517Z,102053.47
2023-03-05T04:02:38.341Z,102059.41
2023-03-05T04:05:05.336Z,102056.72
2023-03-05T04:07:31.963Z,102052.16
2023-03-05T04:09:58.649Z,102029.38
2023-03-05T04:12:25.270Z,102016.19
2023-03-05T04:14:52.022Z,102050.38
2023-03-05T04:17:20.781Z,101969.97
2023-03-05T04:19:47.433Z,102048.59
2023-03-05T04:22:18.229Z,102037.31
2023-03-05T04:24:45.057Z,102026.75
2023-03-05T04:27:13.110Z,102021.50
2023-03-05T04:29:39.766Z,102034.78
2023-03-05T04:32:06.916Z,102031.06
2023-03-05T04:34:33.962Z,101989.09
2023-03-05T04:37:02.775Z,102023.03
2023-03-05T04:39:29.471Z,102010.63
2023-03-05T04:41:58.383Z,102021.13
2023-03-05T04:44:26.139Z,102026.13
2023-03-05T04:46:52.829Z,102030.78
2023-03-05T04:49:19.438Z,102015.88
2023-03-05T04:51:46.088Z,102024.44
2023-03-05T04:54:12.687Z,102023.50
2023-03-05T04:56:39.272Z,102018.09
2023-03-05T04:59:06.060Z,101859.31
2023-03-05T05:01:35.490Z,102013.47
2023-03-05T05:04:02.449Z,102014.41
2023-03-05T05:06:29.145Z,102010.84
2023-03-05T05:08:57.833Z,102006.31
2023-03-05T05:11:24.495Z,102004.59
2023-03-05T05:13:51.117Z,101997.44
2023-03-05T05:16:22.319Z,101964.88
2023-03-05T05:18:51.508Z,101966.63
2023-03-05T05:21:20.664Z,101972.56
2023-03-05T05:23:47.432Z,101979.81
2023-03-05T05:26:16.542Z,101966.53
2023-03-05T05:28:46.809Z,101987.56
2023-03-05T05:31:16.028Z,101985.28
2023-03-05T05:33:42.964Z,101856.78
2023-03-05T05:36:15.853Z,101986.31
2023-03-05T05:38:42.853Z,101979.50
2023-03-05T05:41:12.532Z,101994.25
2023-03-05T05:43:39.400Z,101988.94
2023-03-05T05:46:08.888Z,101958.38
2023-03-05T05:48:36.633Z,101876.44
2023-03-05T05:51:08.993Z,101875.44
2023-03-05T05:53:36.502Z,101817.44
2023-03-05T05:56:07.801Z,101962.84
2023-03-05T05:58:34.598Z,101990.94
2023-03-05T06:01:01.384Z,101975.59
2023-03-05T06:03:28.665Z,101965.84
2023-03-05T06:05:55.814Z,101966.63
2023-03-05T06:08:22.413Z,101968.44
2023-03-05T06:10:55.508Z,101966.47
2023-03-05T06:13:22.305Z,101899.63
2023-03-05T06:15:57.747Z,101962.88
2023-03-05T06:18:24.470Z,101949.63
2023-03-05T06:20:59.343Z,101930.34
2023-03-05T06:23:26.974Z,101942.47
2023-03-05T06:25:53.897Z,101963.69
2023-03-05T06:28:20.942Z,101945.09
2023-03-05T06:30:47.869Z,101926.91
2023-03-05T06:33:14.536Z,101937.78
2023-03-05T06:35:41.687Z,101937.69
2023-03-05T06:38:09.111Z,101948.09
2023-03-05T06:40:39.282Z,101948.88
2023-03-05T06:43:06.873Z,101921.03
2023-03-05T06:45:35.981Z,101933.97
2023-03-05T06:48:04.947Z,101953.09
2023-03-05T06:50:35.876Z,101915.13
2023-03-05T06:53:05.628Z,101949.16
2023-03-05T06:55:39.642Z,101956.94
2023-03-05T06:58:07.163Z,101944.53
2023-03-05T07:00:34.300Z,101949.69
2023-03-05T07:03:01.242Z,101953.19
2023-03-05T07:05:28.044Z,101948.50
2023-03-05T07:07:54.816Z,101952.69
2023-03-05T07:10:21.526Z,101926.81
2023-03-05T07:12:50.410Z,101942.16
2023-03-05T07:15:17.149Z,101915.53
2023-03-05T07:17:43.728Z,101916.19
2023-03-05T07:20:10.927Z,101937.53
2023-03-05T07:22:38.716Z,101932.06
2023-03-05T07:25:05.847Z,101935.19
2023-03-05T07:27:37.732Z,101948.38
2023-03-05T07:30:05.270Z,101933.56
2023-03-05T07:32:32.540Z,101839.25
2023-03-05T07:35:03.961Z,101905.53
2023-03-05T07:37:32.796Z,101915.66
2023-03-05T07:39:59.562Z,101935.53
2023-03-05T07:42:28.691Z,101916.59
2023-03-05T07:44:55.419Z,101930.09
2023-03-05T07:47:23.392Z,101924.34
2023-03-05T07:49:50.281Z,101930.25
2023-03-05T07:52:21.774Z,101891.94
2023-03-05T07:54:48.649Z,101926.16
2023-03-05T07:57:16.302Z,101920.38
2023-03-05T07:59:43.315Z,101900.16
2023-03-05T08:02:12.639Z,101914.50
2023-03-05T08:04:40.382Z,101848.78
2023-03-05T08:07:09.254Z,101919.41
2023-03-05T08:09:35.837Z,101917.38
2023-03-05T08:12:02.412Z,101918.91
2023-03-05T08:14:32.075Z,101914.88
2023-03-05T08:16:58.665Z,101877.50
2023-03-05T08:19:25.247Z,101916.31
2023-03-05T08:21:51.856Z,101839.44
2023-03-05T08:24:21.102Z,101905.84
2023-03-05T08:26:49.914Z,101896.75
2023-03-05T08:29:16.510Z,101904.44
2023-03-05T08:31:46.426Z,101901.31
2023-03-05T08:34:15.745Z,101896.41
2023-03-05T08:36:42.572Z,101883.41
2023-03-05T08:39:09.984Z,101893.84
2023-03-05T08:41:36.634Z,101886.66
2023-03-05T08:44:07.385Z,101884.84
2023-03-05T08:46:34.853Z,101874.97
2023-03-05T08:49:03.663Z,101863.78
2023-03-05T08:51:30.435Z,101856.34
2023-03-05T08:53:59.365Z,101878.63
2023-03-05T08:56:28.480Z,101877.34
2023-03-05T08:58:55.182Z,101871.91
2023-03-05T09:01:22.671Z,101816.50
2023-03-05T09:03:52.257Z,101875.25
2023-03-05T09:06:21.560Z,101862.66
2023-03-05T09:08:48.228Z,101848.63
2023-03-05T09:11:19.363Z,101853.84
2023-03-05T09:13:46.046Z,101871.13
2023-03-05T09:16:15.646Z,101862.22
2023-03-05T09:18:42.802Z,101854.84
2023-03-05T09:21:14.691Z,101867.75
2023-03-05T09:23:42.297Z,101867.56
2023-03-05T09:26:12.231Z,101864.50
2023-03-05T09:28:40.582Z,101858.47
2023-03-05T09:31:12.182Z,101854.38
2023-03-05T09:33:41.653Z,101817.94
2023-03-05T09:36:19.458Z,101837.72
2023-03-05T09:38:46.275Z,101846.69
2023-03-05T09:41:22.187Z,101830.81
2023-03-05T09:44:15.432Z,101842.63
2023-03-05T09:46:54.830Z,101828.03
2023-03-05T09:49:28.830Z,101830.31
2023-03-05T09:52:09.504Z,101828.56
2023-03-05T09:54:41.699Z,101834.84
2023-03-05T09:57:18.479Z,101816.59
2023-03-05T09:59:59.073Z,101823.88
2023-03-05T10:02:27.959Z,101836.75
2023-03-05T10:05:09.774Z,101831.22
2023-03-05T10:07:43.445Z,101831.13
2023-03-05T10:10:14.823Z,101822.03
2023-03-05T10:12:46.561Z,101812.44
2023-03-05T10:15:16.078Z,101811.47
2023-03-05T10:18:19.653Z,101820.31
2023-03-05T10:21:18.975Z,101817.91
2023-03-05T10:24:08.769Z,101810.25
2023-03-05T10:27:06.010Z,101807.66
2023-03-05T10:29:53.726Z,101812.97
2023-03-05T10:32:48.345Z,101809.94
2023-03-05T10:35:44.599Z,101808.84
2023-03-05T10:38:33.132Z,101796.78
2023-03-05T10:41:32.221Z,101798.31
2023-03-05T10:44:15.598Z,101789.44
2023-03-05T10:46:43.310Z,101791.59
2023-03-05T10:49:25.196Z,101713.41
2023-03-05T10:51:53.385Z,101762.47
2023-03-05T10:54:29.696Z,101778.13
2023-03-05T10:57:03.849Z,101778.09
2023-03-05T10:59:32.399Z,101768.19
2023-03-05T11:02:08.997Z,101770.28
2023-03-05T11:04:38.853Z,101771.50
2023-03-05T11:07:32.236Z,101771.06
2023-03-05T11:10:04.827Z,101771.91
2023-03-05T11:12:35.512Z,101763.47
2023-03-05T11:15:10.989Z,101753.78
2023-03-05T11:17:44.901Z,101748.56
2023-03-05T11:20:23.692Z,101747.34
2023-03-05T11:23:12.019Z,101742.53
2023-03-05T11:26:01.275Z,101734.34
2023-03-05T11:28:52.872Z,101741.75
2023-03-05T11:31:19.655Z,101731.50
2023-03-05T11:34:00.176Z,101725.94
2023-03-05T11:36:31.731Z,101728.72
2023-03-05T11:39:11.875Z,101730.91
2023-03-05T11:42:00.660Z,101730.66
2023-03-05T11:44:35.802Z,101713.66
2023-03-05T11:47:16.846Z,101720.59
2023-03-05T11:49:50.522Z,101720.38
2023-03-05T11:52:26.393Z,101715.91
2023-03-05T11:55:27.425Z,101712.22
2023-03-05T11:58:22.576Z,101703.50
2023-03-05T12:00:49.704Z,101699.91
2023-03-05T12:03:23.115Z,101686.56
2023-03-05T12:06:30.092Z,101687.44
2023-03-05T12:08:59.953Z,101660.84
2023-03-05T12:11:29.218Z,101680.53
2023-03-05T12:14:35.852Z,101670.72
2023-03-05T12:17:40.898Z,101667.63
2023-03-05T12:20:27.228Z,101659.81
2023-03-05T12:22:57.203Z,101642.00
2023-03-05T12:25:30.216Z,101639.44
2023-03-05T12:28:02.760Z,101638.03
2023-03-05T12:30:36.323Z,101645.09
2023-03-05T12:33:19.116Z,101640.47
2023-03-05T12:35:54.196Z,101636.38
2023-03-05T12:38:43.903Z,101573.63
2023-03-05T12:41:53.639Z,101622.78
2023-03-05T12:44:22.039Z,101615.88
2023-03-05T12:47:12.042Z,101616.25
2023-03-05T12:49:40.132Z,101609.09
2023-03-05T12:52:26.589Z,101593.56
2023-03-05T12:55:28.602Z,101596.31
2023-03-05T12:58:04.864Z,101596.69
2023-03-05T13:00:46.379Z,101583.47
2023-03-05T13:03:22.071Z,101570.91
2023-03-05T13:05:52.470Z,101578.44
2023-03-05T13:08:35.554Z,101570.25
2023-03-05T13:11:12.065Z,101549.13
2023-03-05T13:13:43.858Z,101544.66
2023-03-05T13:16:21.092Z,101565.81
2023-03-05T13:18:52.397Z,101474.03
2023-03-05T13:21:27.088Z,101556.03
2023-03-05T13:23:59.690Z,101550.22
2023-03-05T13:26:32.819Z,101565.28
2023-03-05T13:29:11.666Z,101553.53
2023-03-05T13:31:46.275Z,101546.84
2023-03-05T13:34:46.186Z,101545.63
2023-03-05T13:37:19.216Z,101546.22
2023-03-05T13:40:02.535Z,101540.94
2023-03-05T13:42:34.871Z,101529.38
2023-03-05T13:45:04.480Z,101527.56
2023-03-05T13:47:36.611Z,101521.63
2023-03-05T13:50:07.457Z,101517.78
2023-03-05T13:52:38.056Z,101515.78
2023-03-05T13:55:14.646Z,101483.78
2023-03-05T13:57:53.693Z,101507.72
2023-03-05T14:00:39.072Z,101503.56
2023-03-05T14:03:24.384Z,101495.72
2023-03-05T14:05:52.189Z,101481.47
2023-03-05T14:08:28.567Z,101494.72
2023-03-05T14:10:57.576Z,101496.09
2023-03-05T14:13:32.447Z,101482.59
2023-03-05T14:16:09.923Z,101490.25
2023-03-05T14:18:37.725Z,101449.34
2023-03-05T14:21:09.697Z,101479.13
2023-03-05T14:23:36.302Z,101474.28
2023-03-05T14:26:34.961Z,101470.84
2023-03-05T14:29:15.476Z,101435.38
2023-03-05T14:31:48.224Z,101473.09
2023-03-05T14:34:40.615Z,101461.81
2023-03-05T14:37:24.672Z,101457.47
2023-03-05T14:40:07.885Z,101451.78
2023-03-05T14:42:38.394Z,101437.94
2023-03-05T14:45:16.684Z,101438.28
2023-03-05T14:47:43.353Z,101438.91
2023-03-05T14:50:22.638Z,101428.53
2023-03-05T14:52:52.674Z,101432.25
2023-03-05T14:55:22.973Z,101422.34
2023-03-05T14:57:51.725Z,101424.34
2023-03-05T15:00:24.844Z,101412.22
2023-03-05T15:02:51.517Z,101418.94
2023-03-05T15:05:19.287Z,101422.16
2023-03-05T15:07:46.648Z,101407.84
2023-03-05T15:10:18.842Z,101409.56
2023-03-05T15:12:50.580Z,101405.38
2023-03-05T15:15:21.122Z,101401.19
2023-03-05T15:17:57.507Z,101408.13
2023-03-05T15:20:27.518Z,101393.50
2023-03-05T15:22:56.545Z,101392.53
2023-03-05T15:25:26.697Z,101392.53
2023-03-05T15:27:53.301Z,101380.69
2023-03-05T15:30:26.877Z,101376.47
2023-03-05T15:32:55.109Z,101381.91
2023-03-05T15:35:22.274Z,101386.72
2023-03-05T15:37:51.135Z,101382.25
2023-03-05T15:40:18.050Z,101376.22
2023-03-05T15:42:47.044Z,101378.66
2023-03-05T15:45:13.763Z,101364.31
2023-03-05T15:47:40.433Z,101364.19
2023-03-05T15:50:07.740Z,101372.09
2023-03-05T15:52:34.502Z,101366.28
2023-03-05T15:55:01.973Z,101359.84
2023-03-05T15:57:29.171Z,101364.88
2023-03-05T15:59:57.978Z,101339.06
2023-03-05T16:02:29.455Z,101286.38
2023-03-05T16:04:56.110Z,101353.50
2023-03-05T16:07:25.718Z,101345.81
2023-03-05T16:09:55.012Z,101336.31
2023-03-05T16:12:26.398Z,101344.69
2023-03-05T16:14:53.091Z,101339.13
2023-03-05T16:17:22.210Z,101314.50
2023-03-05T16:19:52.271Z,101323.38
2023-03-05T16:22:19.096Z,101329.88
2023-03-05T16:24:45.683Z,101325.69
2023-03-05T16:27:13.090Z,101326.78
2023-03-05T16:29:39.667Z,101299.59
2023-03-05T16:32:08.866Z,101268.91
2023-03-05T16:34:35.574Z,101317.50
2023-03-05T16:37:04.540Z,101314.91
2023-03-05T16:39:33.416Z,101314.69
2023-03-05T16:42:00.080Z,101284.25
2023-03-05T16:44:29.117Z,101213.31
2023-03-05T16:46:56.490Z,101232.69
2023-03-05T16:49:23.636Z,101304.75
2023-03-05T16:51:50.203Z,101245.25
2023-03-05T16:54:16.784Z,101284.22
2023-03-05T16:56:48.124Z,101294.94
2023-03-05T16:59:17.238Z,101302.97
2023-03-05T17:01:44.830Z,101295.81
2023-03-05T17:04:13.772Z,101280.56
2023-03-05T17:06:40.610Z,101295.50
2023-03-05T17:09:07.279Z,101289.22
2023-03-05T17:11:33.883Z,101293.16
2023-03-05T17:14:00.549Z,101280.91
2023-03-05T17:16:27.241Z,101285.22
2023-03-05T17:18:53.765Z,101284.50
2023-03-05T17:21:20.321Z,101284.59
2023-03-05T17:23:46.914Z,101275.84
2023-03-05T17:26:17.819Z,101282.00
2023-03-05T17:28:45.228Z,101288.50
2023-03-05T17:31:14.236Z,101260.81
2023-03-05T17:33:44.304Z,101283.19
2023-03-05T17:36:16.944Z,101287.66
2023-03-05T17:38:47.665Z,101281.38
2023-03-05T17:41:15.926Z,101279.84
2023-03-05T17:43:43.089Z,101263.97
2023-03-05T17:46:10.087Z,101277.72
2023-03-05T17:48:39.095Z,101278.06
2023-03-05T17:51:07.442Z,101279.25
2023-03-05T17:53:35.188Z,101279.25
2023-03-05T17:56:02.341Z,101158.50
2023-03-05T17:58:28.976Z,101284.91
2023-03-05T18:00:55.581Z,101278.13
2023-03-05T18:03:24.656Z,101284.50
2023-03-05T18:05:54.405Z,101281.03
2023-03-05T18:08:21.178Z,101269.78
2023-03-05T18:10:47.840Z,101245.97
2023-03-05T18:13:14.464Z,101281.09
2023-03-05T18:15:47.398Z,101274.25
2023-03-05T18:18:15.681Z,101285.56
2023-03-05T18:20:42.593Z,101278.69
2023-03-05T18:23:10.047Z,101248.47
2023-03-05T18:25:36.673Z,101254.00
2023-03-05T18:28:07.227Z,101206.47
2023-03-05T18:30:34.344Z,101251.06
2023-03-05T18:33:01.436Z,101169.44
2023-03-05T18:35:29.323Z,101262.22
2023-03-05T18:37:57.108Z,101265.03
2023-03-05T18:40:26.246Z,101274.13
2023-03-05T18:42:52.915Z,101266.25
2023-03-05T18:45:21.544Z,101260.16
2023-03-05T18:47:49.088Z,101264.63
2023-03-05T18:50:18.637Z,101259.19
2023-03-05T18:52:46.371Z,101259.19
2023-03-05T18:55:21.200Z,101241.78
2023-03-05T18:57:50.062Z,101258.78
2023-03-05T19:00:24.682Z,101245.78
2023-03-05T19:02:51.422Z,101253.78
2023-03-05T19:05:18.838Z,101219.56
2023-03-05T19:07:45.827Z,101247.41
2023-03-05T19:10:14.641Z,101238.41
2023-03-05T19:12:55.638Z,101166.97
2023-03-05T19:15:22.958Z,101238.97
2023-03-05T19:17:50.085Z,101232.97
2023-03-05T19:20:18.006Z,101192.53
2023-03-05T19:22:46.871Z,101204.84
2023-03-05T19:25:13.856Z,101233.75
2023-03-05T19:27:40.576Z,101203.22
2023-03-05T19:30:08.337Z,101223.34
2023-03-05T19:32:35.260Z,101218.16
2023-03-05T19:35:02.532Z,101189.44
2023-03-05T19:37:33.166Z,101170.53
2023-03-05T19:39:59.823Z,101211.88
2023-03-05T19:42:26.782Z,101200.38
2023-03-05T19:44:54.424Z,101176.72
2023-03-05T19:47:24.256Z,101198.47
2023-03-05T19:49:50.875Z,101195.75
2023-03-05T19:52:19.908Z,101197.69
2023-03-05T19:54:48.729Z,101182.66
2023-03-05T19:57:15.307Z,101185.78
2023-03-05T19:59:44.096Z,101187.22
2023-03-05T20:02:13.048Z,101117.16
2023-03-05T20:04:39.636Z,101189.13
2023-03-05T20:07:11.029Z,101158.72
2023-03-05T20:09:37.660Z,101168.16
2023-03-05T20:12:05.629Z,101176.72
2023-03-05T20:14:34.412Z,101177.66
2023-03-05T20:17:01.016Z,101146.31
2023-03-05T20:19:27.688Z,101177.66
2023-03-05T20:21:54.264Z,101163.72
2023-03-05T20:24:23.262Z,101168.06
2023-03-05T20:26:49.893Z,101122.47
2023-03-05T20:29:19.207Z,101162.06
2023-03-05T20:31:50.040Z,101076.06
2023-03-05T20:34:22.606Z,101168.91
2023-03-05T20:36:49.372Z,101140.44
2023-03-05T20:39:19.254Z,101158.31
2023-03-05T20:41:46.909Z,101156.56
2023-03-05T20:44:16.542Z,101148.44
2023-03-05T20:46:53.724Z,101145.94
2023-03-05T20:49:20.469Z,101145.19
2023-03-05T20:51:50.235Z,101110.56
2023-03-05T20:54:20.200Z,101121.06
2023-03-05T20:56:47.780Z,101145.31
2023-03-05T20:59:14.573Z,101144.44
2023-03-05T21:01:41.390Z,101129.97
2023-03-05T21:04:08.701Z,101139.03
2023-03-05T21:06:36.012Z,101138.09
2023-03-05T21:09:03.227Z,101132.78
2023-03-05T21:11:29.957Z,101133.75
2023-03-05T21:13:59.332Z,101131.25
2023-03-05T21:16:27.431Z,101116.34
2023-03-05T21:18:57.420Z,101078.47
2023-03-05T21:21:24.926Z,101113.63
2023-03-05T21:23:54.150Z,101120.63
2023-03-05T21:26:20.971Z,101088.81
2023-03-05T21:28:47.942Z,101115.44
2023-03-05T21:31:18.857Z,101117.41
2023-03-05T21:33:48.123Z,101112.94
2023-03-05T21:36:18.787Z,101093.16
2023-03-05T21:38:49.289Z,101101.81
2023-03-05T21:41:18.090Z,101103.56
2023-03-05T21:43:44.889Z,101100.19
2023-03-05T21:46:11.688Z,100893.28
2023-03-05T21:48:38.392Z,101099.31
2023-03-05T21:51:09.095Z,101097.72
2023-03-05T21:53:36.323Z,101090.56
2023-03-05T21:56:19.469Z,101080.06
2023-03-05T21:58:50.911Z,101070.66
2023-03-05T22:01:19.558Z,101062.34
2023-03-05T22:03:47.271Z,101082.34
2023-03-05T22:06:18.258Z,101086.00
2023-03-05T22:08:45.110Z,101082.75
2023-03-05T22:11:14.768Z,101073.25
2023-03-05T22:13:41.928Z,101070.66
2023-03-05T22:16:09.360Z,100870.56
2023-03-05T22:18:36.823Z,101074.31
2023-03-05T22:21:04.212Z,101070.88
2023-03-05T22:23:34.727Z,101047.50
2023-03-05T22:26:05.117Z,100902.06
2023-03-05T22:28:33.081Z,101037.34
2023-03-05T22:31:01.988Z,101027.81
2023-03-05T22:33:29.069Z,101028.78
2023-03-05T22:35:55.794Z,101043.50
2023-03-05T22:38:25.785Z,101042.75
2023-03-05T22:40:53.052Z,100966.16
2023-03-05T22:43:22.427Z,101037.53
2023-03-05T22:45:49.344Z,100956.72
2023-03-05T22:48:16.584Z,101027.91
2023-03-05T22:50:48.919Z,101003.78
2023-03-05T22:53:15.492Z,101015.59
2023-03-05T22:55:42.869Z,101023.59
2023-03-05T22:58:10.006Z,101011.06
2023-03-05T23:00:37.390Z,100993.56
2023-03-05T23:03:04.201Z,101003.25
2023-03-05T23:05:30.802Z,100971.44
2023-03-05T23:07:59.954Z,100946.28
2023-03-05T23:10:28.796Z,101001.88
2023-03-05T23:12:58.123Z,100996.66
2023-03-05T23:15:30.842Z,100998.03
2023-03-05T23:17:58.462Z,100990.59
2023-03-05T23:20:30.291Z,100988.94
2023-03-05T23:22:57.125Z,100993.91
2023-03-05T23:25:27.785Z,100994.50
2023-03-05T23:27:54.875Z,100991.81
2023-03-05T23:30:32.020Z,100993.94
2023-03-05T23:33:00.526Z,100987.00
2023-03-05T23:35:32.747Z,100960.41
2023-03-05T23:38:01.488Z,100970.31
2023-03-05T23:40:35.702Z,100974.34
2023-03-05T23:43:02.798Z,100978.00
2023-03-05T23:45:32.085Z,100970.13
2023-03-05T23:47:59.387Z,100958.78
2023-03-05T23:50:37.768Z,100946.66
2023-03-05T23:53:07.560Z,100807.19
2023-03-05T23:55:38.709Z,100957.41
2023-03-05T23:58:05.367Z,100930.59
